• Join FlightAware (Why Join?)
  • Login
  • US Flag 
12:40AM EDT


 

Airport Tracker/Info


-or-


 

Live Flight TrackerFlight Track Log ✈ EJA929 ✈ 25-Feb-2014 ✈ KHOU - KVNY

Flight Track Log - Related Links

Times and Time Zones

All times are in EST time to prevent confusion due to time zone crossing. See the EJA929 flight status page for this flight to view local times or setup timezone preferences in your user account.

Time Position Orientation Groundspeed Altitude Reporting Facility
EST Latitude Longitude Course Direction KTS MPH feet Rate Location/Type
10:21AM 29.6333 -95.2653 115° Southeast 170 196 600  Level Houston Center
10:22AM 29.6306 -95.2583 115° Southeast 174 200 1,000 2,640 Climbing Houston Center
10:23AM 29.6733 -95.2678 349° North 232 267 4,100 2,580 Climbing Houston Center
10:23AM 29.6883 -95.3178 289° West 248 285 5,700 2,820 Climbing Houston Center
10:24AM 29.7114 -95.3981 288° West 258 297 9,000 2,760 Climbing Houston Center
10:25AM 29.7350 -95.4808 288° West 267 307 11,500 1,680 Climbing Houston Center
10:26AM 29.7608 -95.5772 287° West 305 351 12,500 1,380 Climbing Houston Center
10:27AM 29.7911 -95.6847 288° West 348 400 14,400 1,740 Climbing Houston Center
10:29AM 29.8222 -95.7939 288° West 358 412 16,200 2,040 Climbing Houston Center
10:30AM 29.8597 -95.9256 288° West 361 415 18,700 2,100 Climbing Houston Center
10:31AM 29.8897 -96.0350 288° West 360 414 20,600 1,800 Climbing Houston Center
10:32AM 29.9203 -96.1458 288° West 363 418 22,500 1,740 Climbing Houston Center
10:33AM 29.9406 -96.2586 282° West 363 418 24,300 1,560 Climbing Houston Center
10:34AM 29.9461 -96.3733 273° West 361 415 25,800 1,320 Climbing Houston Center
10:35AM 29.9531 -96.4931 274° West 373 429 27,100 1,440 Climbing Houston Center
10:36AM 29.9711 -96.6361 278° West 380 437 28,800 1,500 Climbing Houston Center
10:37AM 29.9972 -96.7550 284° West 385 443 30,200 1,380 Climbing Houston Center
10:38AM 30.0231 -96.8764 284° West 391 450 31,700 1,980 Climbing Houston Center
10:39AM 30.0467 -96.9950 283° West 386 444 34,400 2,460 Climbing Houston Center
10:40AM 30.0711 -97.1039 285° West 360 414 36,900 1,980 Climbing Houston Center
10:41AM 30.1000 -97.2267 285° West 351 404 38,600 1,140 Climbing Houston Center
10:42AM 30.1258 -97.3433 284° West 366 421 39,300 540 Climbing Houston Center
10:43AM 30.1536 -97.4628 285° West 377 434 39,800 300 Climbing Houston Center
10:44AM 30.1814 -97.5856 285° West 389 448 40,000 60 Climbing Houston Center
10:45AM 30.2133 -97.7306 284° West 395 455 40,000  Level Houston Center
10:46AM 30.2411 -97.8558 284° West 396 456 40,000  Level Houston Center
10:47AM 30.2700 -97.9828 285° West 394 453 40,000  Level Houston Center
10:48AM 30.2994 -98.1172 284° West 400 460 40,000  Level Houston Center
10:49AM 30.3242 -98.2328 284° West 400 460 40,000  Level Houston Center
10:50AM 30.3533 -98.3592 285° West 401 461 40,000  Level Houston Center
10:51AM 30.3797 -98.4856 284° West 400 460 40,000  Level Houston Center
10:52AM 30.4078 -98.6114 285° West 401 461 40,000  Level Houston Center
10:53AM 30.4389 -98.7583 284° West 398 458 40,000  Level Houston Center
10:54AM 30.4667 -98.8856 284° West 403 464 40,000  Level Houston Center
10:55AM 30.4928 -99.0100 284° West 396 456 40,000  Level Houston Center
10:56AM 30.5214 -99.1444 284° West 400 460 40,000  Level Houston Center
10:57AM 30.5472 -99.2681 284° West 398 458 40,000  Level Houston Center
10:59AM 30.5736 -99.3925 284° West 399 459 40,000  Level Houston Center
11:00AM 30.6000 -99.5169 284° West 398 458 40,000  Level Houston Center
11:01AM 30.6258 -99.6417 284° West 400 460 40,000  Level Houston Center
11:02AM 30.6569 -99.7903 284° West 399 459 40,000  Level Houston Center
11:03AM 30.6822 -99.9139 283° West 397 457 40,000  Level Houston Center
11:04AM 30.7078 -100.0375 284° West 397 457 40,000  Level Houston Center
11:05AM 30.7325 -100.1625 283° West 400 460 40,000  Level Houston Center
11:06AM 30.7583 -100.2869 284° West 399 459 40,000  Level Houston Center
11:07AM 30.7883 -100.4364 283° West 400 460 40,000  Level Houston Center
11:08AM 30.8131 -100.5617 283° West 400 460 40,000  Level Houston Center
11:09AM 30.8378 -100.6867 283° West 400 460 40,000  Level Houston Center
11:10AM 30.8619 -100.8122 283° West 400 460 40,000  Level Houston Center
11:11AM 30.8878 -100.9367 284° West 397 457 40,000  Level Houston Center
11:12AM 30.9172 -101.0875 283° West 399 459 40,000  Level Houston Center
11:13AM 30.9400 -101.2144 282° West 402 463 40,000  Level Houston Center
11:14AM 30.9644 -101.3344 283° West 399 459 40,000  Level Houston Center
11:15AM 30.9883 -101.4600 283° West 397 457 40,000  Level Houston Center
11:16AM 31.0114 -101.5867 282° West 398 458 40,000  Level Houston Center
11:17AM 31.0419 -101.7394 283° West 402 463 40,000 300 Level Houston Center
11:18AM 31.0656 -101.8672 282° West 404 465 40,700 720 Climbing Houston Center
11:19AM 31.0889 -101.9906 282° West 394 453 41,600 840 Climbing Houston Center
11:20AM 31.1114 -102.1142 282° West 389 448 42,500 660 Climbing Houston Center
11:21AM 31.1300 -102.2167 282° West 400 460 42,900 240 Climbing Albuquerque Center
11:22AM 31.1522 -102.3392 282° West 395 455 43,000  Climbing Albuquerque Center
11:23AM 31.1808 -102.4917 282° West 400 460 43,000  Level Albuquerque Center
11:24AM 31.2056 -102.6308 282° West 403 464 43,000 -60 Level Albuquerque Center
11:25AM 31.2303 -102.7606 283° West 408 470 42,900  Descending Albuquerque Center
11:26AM 31.2528 -102.8925 281° West 411 473 43,000  Climbing Albuquerque Center
11:27AM 31.2772 -103.0236 282° West 412 474 43,000  Level Albuquerque Center
11:28AM 31.2997 -103.1539 281° West 412 474 43,000  Level Albuquerque Center
11:29AM 31.3236 -103.2858 282° West 413 475 43,000  Level Albuquerque Center
11:30AM 31.3461 -103.4181 281° West 415 478 43,000  Level Albuquerque Center
11:31AM 31.3733 -103.5750 282° West 412 474 43,000  Level Albuquerque Center
11:32AM 31.3972 -103.7075 282° West 415 478 43,000  Level Albuquerque Center
11:34AM 31.4169 -103.8292 281° West 413 475 43,000  Level Albuquerque Center
11:35AM 31.4408 -103.9628 282° West 417 480 43,000  Level Albuquerque Center
11:36AM 31.4739 -104.1203 284° West 417 480 43,000  Level Albuquerque Center
11:37AM 31.5103 -104.2528 288° West 426 490 43,000  Level Albuquerque Center
11:38AM 31.5467 -104.3861 288° West 429 494 43,000  Level Albuquerque Center
11:39AM 31.5828 -104.5189 288° West 431 496 43,000  Level Albuquerque Center
11:40AM 31.6175 -104.6525 287° West 431 496 43,000  Level Albuquerque Center
11:41AM 31.6597 -104.8122 287° West 431 496 43,000  Level Albuquerque Center
11:42AM 31.6936 -104.9461 287° West 431 496 43,000  Level Albuquerque Center
11:43AM 31.7297 -105.0797 288° West 432 497 43,000  Level Albuquerque Center
11:44AM 31.7631 -105.2125 286° West 429 494 43,000  Level Albuquerque Center
11:45AM 31.7972 -105.3508 286° West 432 497 43,000  Level Albuquerque Center
11:46AM 31.8375 -105.5058 287° West 425 489 43,000  Level Albuquerque Center
11:47AM 31.8703 -105.6372 286° West 422 486 43,000  Level Albuquerque Center
11:48AM 31.9039 -105.7689 287° West 422 486 43,000  Level Albuquerque Center
11:49AM 31.9372 -105.9014 287° West 423 487 43,000  Level Albuquerque Center
11:50AM 31.9742 -106.0444 287° West 424 488 43,000  Level Albuquerque Center
11:51AM 32.0064 -106.1778 286° West 424 488 43,000  Level Albuquerque Center
11:52AM 32.0397 -106.3100 287° West 422 486 43,000  Level Albuquerque Center
11:53AM 32.0722 -106.4428 286° West 423 487 43,000  Level Albuquerque Center
11:54AM 32.1108 -106.6022 286° West 422 486 43,000  Level Albuquerque Center
11:55AM 32.1442 -106.7358 286° West 423 487 43,000  Level Albuquerque Center
11:57AM 32.2128 -107.0194 286° West 423 487 43,000  Level Albuquerque Center
11:58AM 32.2453 -107.1544 286° West 428 493 43,000  Level Albuquerque Center
11:59AM 32.2747 -107.2906 284° West 434 499 43,000  Level Albuquerque Center
12:00PM 32.3061 -107.4256 285° West 431 496 43,000  Level Albuquerque Center
12:01PM 32.3375 -107.5536 286° West 429 494 43,000  Level Albuquerque Center
12:02PM 32.3756 -107.7181 285° West 429 494 43,000  Level Albuquerque Center
12:04PM 32.4083 -107.8556 286° West 433 498 43,000  Level Albuquerque Center
12:05PM 32.4419 -107.9986 286° West 433 498 43,000  Level Albuquerque Center
12:06PM 32.4742 -108.1350 286° West 430 495 43,000  Level Albuquerque Center
12:07PM 32.5050 -108.2742 285° West 435 501 43,000  Level Albuquerque Center
12:08PM 32.5367 -108.4122 285° West 435 501 43,000  Level Albuquerque Center
12:09PM 32.5689 -108.5519 285° West 437 503 43,000  Level Albuquerque Center
12:10PM 32.6000 -108.6911 285° West 437 503 43,000  Level Albuquerque Center
12:11PM 32.6369 -108.8597 285° West 437 503 43,000  Level Albuquerque Center
12:12PM 32.6697 -109.0011 285° West 439 505 43,000  Level Albuquerque Center
12:13PM 32.6997 -109.1428 284° West 438 504 43,000  Level Albuquerque Center
12:14PM 32.7317 -109.2836 285° West 438 504 43,000  Level Albuquerque Center
12:15PM 32.7636 -109.4256 285° West 442 509 43,000  Level Albuquerque Center
12:16PM 32.7944 -109.5672 285° West 442 509 43,000  Level Albuquerque Center
12:17PM 32.8250 -109.7078 285° West 439 505 43,000  Level Albuquerque Center
12:18PM 32.8625 -109.8764 285° West 440 506 43,000  Level Albuquerque Center
12:19PM 32.8925 -110.0189 284° West 442 509 43,000  Level Albuquerque Center
12:20PM 32.9219 -110.1597 284° West 440 506 43,000  Level Albuquerque Center
12:21PM 32.9533 -110.3022 285° West 443 510 43,000  Level Albuquerque Center
12:22PM 32.9828 -110.4456 284° West 446 513 43,000  Level Albuquerque Center
12:23PM 33.0117 -110.5889 284° West 446 513 43,000  Level Albuquerque Center
12:24PM 33.0444 -110.7375 285° West 447 514 43,000  Level Albuquerque Center
12:25PM 33.0739 -110.8811 284° West 448 516 43,000  Level Albuquerque Center
12:26PM 33.1092 -111.0542 284° West 447 514 43,000  Level Albuquerque Center
12:27PM 33.1381 -111.1989 283° West 448 516 43,000  Level Albuquerque Center
12:28PM 33.1678 -111.3444 284° West 451 519 43,000  Level Albuquerque Center
12:29PM 33.1967 -111.4906 283° West 452 520 43,000  Level Albuquerque Center
12:30PM 33.2256 -111.6364 283° West 451 519 43,000  Level Albuquerque Center
12:31PM 33.2547 -111.7839 283° West 454 522 43,000  Level Albuquerque Center
12:32PM 33.2825 -111.9308 283° West 454 522 43,000  Level Albuquerque Center
12:33PM 33.3175 -112.1067 283° West 452 520 43,000  Level Albuquerque Center
12:35PM 33.3456 -112.2533 283° West 451 519 43,000  Level Albuquerque Center
12:36PM 33.3731 -112.4019 283° West 454 522 43,000  Level Albuquerque Center
12:37PM 33.4017 -112.5494 283° West 454 522 43,000  Level Albuquerque Center
12:38PM 33.4292 -112.6967 283° West 453 521 43,000 -60 Level Albuquerque Center
12:39PM 33.4575 -112.8442 283° West 453 521 42,900 -1,020 Descending Albuquerque Center
12:40PM 33.4919 -113.0231 283° West 457 526 40,900 -2,040 Descending Albuquerque Center
12:41PM 33.5206 -113.1703 283° West 457 526 38,800 -2,220 Descending Albuquerque Center
12:42PM 33.5475 -113.3164 283° West 451 519 36,400 -2,100 Descending Albuquerque Center
12:43PM 33.5753 -113.4592 283° West 445 512 34,500 -1,200 Descending Albuquerque Center
12:44PM 33.6014 -113.6039 282° West 442 509 34,000 -300 Descending Albuquerque Center
12:45PM 33.6286 -113.7503 283° West 448 516 34,000  Level Albuquerque Center
12:46PM 33.6619 -113.9308 283° West 459 528 34,000  Level Albuquerque Center
12:48PM 33.7017 -114.1736 281° West 468 539 34,000  Level Los Angeles Center
12:49PM 33.7158 -114.3311 276° West 473 544 34,000  Level Los Angeles Center
12:50PM 33.7294 -114.4864 276° West 470 541 34,000  Level Los Angeles Center
12:51PM 33.7419 -114.6436 276° West 473 544 34,000  Level Los Angeles Center
12:52PM 33.7561 -114.8322 275° West 474 545 34,000  Level Los Angeles Center
12:53PM 33.7683 -114.9897 275° West 474 545 34,000 -180 Level Los Angeles Center
12:54PM 33.7819 -115.1489 276° West 478 550 33,700 -900 Descending Los Angeles Center
12:55PM 33.7925 -115.3053 275° West 474 545 32,200 -1,500 Descending Los Angeles Center
12:56PM 33.8047 -115.4664 275° West 483 556 30,700 -1,080 Descending Los Angeles Center
12:57PM 33.8175 -115.6614 275° West 489 563 30,000 -360 Descending Los Angeles Center
12:58PM 33.8286 -115.8242 275° West 489 563 30,000 -180 Level Los Angeles Center
12:59PM 33.8406 -115.9856 275° West 488 562 29,700 -1,140 Descending Los Angeles Center
01:00PM 33.8519 -116.1486 275° West 490 564 27,700 -2,700 Descending Los Angeles Center
01:01PM 33.8631 -116.3358 274° West 471 542 24,100 -2,880 Descending Los Angeles Center
01:02PM 33.8731 -116.4847 275° West 454 522 21,800 -2,340 Descending Los Angeles Center
01:03PM 33.8794 -116.6297 273° West 441 507 19,300 -3,000 Descending Los Angeles Center
01:04PM 33.8856 -116.7661 273° West 414 476 15,700 -2,580 Descending Los Angeles Center
01:05PM 33.8903 -116.8886 273° West 375 432 14,000 -1,140 Descending Los Angeles Center
01:06PM 33.9178 -116.9767 291° West 299 344 13,400 -1,140 Descending Los Angeles Center
01:07PM 33.9728 -117.0733 304° West 292 336 11,700 -1,500 Descending Los Angeles Center
01:08PM 33.9850 -117.1689 279° West 288 331 10,300 -1,560 Descending Los Angeles Center
01:09PM 34.0003 -117.2697 280° West 286 329 8,500 -1,140 Descending Los Angeles Center
01:10PM 34.0139 -117.3619 280° West 281 323 8,000 -300 Descending Los Angeles Center
01:11PM 34.0294 -117.4553 281° West 284 327 8,000  Level Los Angeles Center
01:12PM 34.0428 -117.5483 280° West 283 326 8,000  Level Los Angeles Center
01:13PM 34.0581 -117.6397 281° West 280 322 8,000  Level Los Angeles Center
01:15PM 34.0833 -117.7667 284° West 284 327 8,000  Level Southern California TRACON
01:16PM 34.1000 -117.8667 281° West 281 323 8,000  Level Southern California TRACON
01:17PM 34.1167 -117.9500 284° West 278 320 8,000  Level Southern California TRACON
01:18PM 34.1283 -118.0228 281° West 279 321 8,000  Level Los Angeles Center
01:19PM 34.1550 -118.1106 290° West 285 328 8,000  Level Los Angeles Center
01:20PM 34.2192 -118.1919 314° West 282 325 8,000 -300 Level Los Angeles Center
01:21PM 34.2736 -118.2592 314° West 281 323 7,500 -540 Descending Los Angeles Center
01:22PM 34.3239 -118.3219 314° West 271 312 7,000 -300 Descending Los Angeles Center
01:23PM 34.3667 -118.3833 310° West 232 267 7,000 -300 Level Southern California TRACON
01:24PM 34.4167 -118.4333 320° Northwest 228 262 6,500 -540 Descending Southern California TRACON
01:25PM 34.4333 -118.5000 287° West 231 266 6,000 -780 Descending Southern California TRACON
01:26PM 34.3833 -118.5167 195° South 199 229 5,000 -900 Descending Southern California TRACON
01:27PM 34.3500 -118.5000 158° South 136 157 4,200 -900 Descending Southern California TRACON
01:28PM 34.3167 -118.5000 180° South 126 145 3,300 -900 Descending Southern California TRACON
01:29PM 34.2833 -118.5000 180° South 129 148 2,500 -960 Descending Southern California TRACON
01:30PM 34.2333 -118.5000 180° South 133 153 1,500 -1,020 Descending Southern California TRACON